UAE28K EGPF-OMDB
Flight info
| Callsign | UAE28K |
|---|---|
| Flight time | N/A |
| Altitude | 39000 |
| Route | NORBO Y96 HAVEN DCT ERKIT N110 DOLAS DCT NAVPI DCT DODEN DCT NEGIX DCT DINKU M867 XERUM DCT BAVAX DCT RADIZ DCT NIPEL DCT ELTIB DCT VRANA DCT DIMIS DCT SALUN N705 MMA P751 DASUM Y234 FYM M872 BDB Y214 RAPMA DCT KUVSO DCT KATIT DCT PEKEM M628 RIGIL G783 ASPED Q308 KIPOK Q568 IMPED |
| Aircraft | A388/J-SADE2E3FGHIJ3J4J5M1RWXY/LB1D1 |
Departure
| Time | 2026-05-01 13:43 |
|---|---|
| Airport | Glasgow Airport (EGPF) |
Arrival
| Time | N/A |
|---|---|
| Airport | Dubai International Airport (OMDB) |
| Time | Latitude | Longitude | Altitude | Speed | Heading |
|---|---|---|---|---|---|
| 2026-05-01 13:07 | 55.86642 | -4.43725 | 34 ft | 0 kts | 253° |
| 2026-05-01 13:33 | 55.86645 | -4.43710 | 33 ft | 2 kts | 254° |
| 2026-05-01 13:34 | 55.86650 | -4.43659 | 34 ft | 2 kts | 261° |
| 2026-05-01 13:34 | 55.86648 | -4.43601 | 34 ft | 2 kts | 289° |
| 2026-05-01 13:35 | 55.86626 | -4.43571 | 31 ft | 1 kts | 339° |
| 2026-05-01 13:35 | 55.86626 | -4.43570 | 31 ft | 0 kts | 339° |
| 2026-05-01 13:37 | 55.86630 | -4.43573 | 34 ft | 5 kts | 339° |
| 2026-05-01 13:38 | 55.86741 | -4.43689 | 34 ft | 15 kts | 276° |
| 2026-05-01 13:38 | 55.86679 | -4.43867 | 34 ft | 19 kts | 210° |
| 2026-05-01 13:38 | 55.86542 | -4.44121 | 34 ft | 39 kts | 226° |
| 2026-05-01 13:39 | 55.86396 | -4.44388 | 34 ft | 46 kts | 225° |
| 2026-05-01 13:39 | 55.86261 | -4.44654 | 34 ft | 8 kts | 271° |
| 2026-05-01 13:39 | 55.86278 | -4.44742 | 34 ft | 0 kts | 320° |
| 2026-05-01 13:41 | 55.86285 | -4.44752 | 34 ft | 15 kts | 320° |
| 2026-05-01 13:41 | 55.86371 | -4.44841 | 34 ft | 0 kts | 26° |
| 2026-05-01 13:42 | 55.86463 | -4.44677 | 34 ft | 38 kts | 42° |
| 2026-05-01 13:42 | 55.86840 | -4.43981 | 34 ft | 126 kts | 47° |
| 2026-05-01 13:42 | 55.87553 | -4.42657 | 52 ft | 179 kts | 46° |
| 2026-05-01 13:42 | 55.88294 | -4.41274 | 361 ft | 197 kts | 46° |
| 2026-05-01 13:43 | 55.89148 | -4.39698 | 841 ft | 217 kts | 46° |
| 2026-05-01 13:43 | 55.90228 | -4.37759 | 1403 ft | 246 kts | 47° |
| 2026-05-01 13:43 | 55.91349 | -4.35653 | 1936 ft | 265 kts | 49° |
| 2026-05-01 13:43 | 55.92603 | -4.33165 | 2495 ft | 274 kts | 50° |
| 2026-05-01 13:44 | 55.94068 | -4.31016 | 3043 ft | 272 kts | 23° |
| 2026-05-01 13:44 | 55.95925 | -4.30569 | 3609 ft | 273 kts | 349° |
| 2026-05-01 13:44 | 55.97621 | -4.32001 | 4181 ft | 271 kts | 314° |
| 2026-05-01 13:44 | 55.98647 | -4.34717 | 4749 ft | 268 kts | 291° |
| 2026-05-01 13:45 | 55.99135 | -4.38038 | 5323 ft | 263 kts | 266° |
| 2026-05-01 13:45 | 55.98722 | -4.41142 | 5884 ft | 259 kts | 238° |
| 2026-05-01 13:45 | 55.97671 | -4.43729 | 6459 ft | 261 kts | 231° |
| 2026-05-01 13:45 | 55.96630 | -4.46504 | 7004 ft | 263 kts | 236° |
| 2026-05-01 13:46 | 55.95772 | -4.49257 | 7516 ft | 264 kts | 238° |
| 2026-05-01 13:46 | 55.94749 | -4.52068 | 8094 ft | 264 kts | 229° |
| 2026-05-01 13:46 | 55.93603 | -4.54582 | 8630 ft | 265 kts | 229° |
| 2026-05-01 13:46 | 55.92437 | -4.57199 | 9203 ft | 267 kts | 229° |
| 2026-05-01 13:47 | 55.91285 | -4.59764 | 9772 ft | 267 kts | 224° |
| 2026-05-01 13:47 | 55.89738 | -4.61606 | 10333 ft | 268 kts | 198° |
| 2026-05-01 13:47 | 55.87878 | -4.61940 | 10883 ft | 271 kts | 172° |
| 2026-05-01 13:47 | 55.86136 | -4.60705 | 11412 ft | 280 kts | 147° |
| 2026-05-01 13:48 | 55.84820 | -4.58076 | 11971 ft | 290 kts | 124° |
| 2026-05-01 13:48 | 55.83818 | -4.54906 | 12515 ft | 294 kts | 123° |
| 2026-05-01 13:48 | 55.82810 | -4.51719 | 13109 ft | 296 kts | 123° |
| 2026-05-01 13:48 | 55.81792 | -4.48487 | 13692 ft | 298 kts | 123° |
| 2026-05-01 13:49 | 55.80788 | -4.45290 | 14219 ft | 300 kts | 124° |
| 2026-05-01 13:49 | 55.79746 | -4.41962 | 14772 ft | 306 kts | 124° |
| 2026-05-01 13:49 | 55.78695 | -4.38622 | 15294 ft | 313 kts | 124° |
| 2026-05-01 13:49 | 55.77621 | -4.35216 | 15845 ft | 319 kts | 124° |
| 2026-05-01 13:50 | 55.76536 | -4.31790 | 16389 ft | 323 kts | 124° |
| 2026-05-01 13:50 | 55.75462 | -4.28410 | 16937 ft | 327 kts | 124° |
| 2026-05-01 13:50 | 55.74330 | -4.24854 | 17512 ft | 331 kts | 124° |
| 2026-05-01 13:50 | 55.73196 | -4.21303 | 18084 ft | 334 kts | 124° |
| 2026-05-01 13:51 | 55.72013 | -4.17609 | 18508 ft | 343 kts | 124° |
| 2026-05-01 13:51 | 55.70813 | -4.13892 | 18654 ft | 358 kts | 124° |
| 2026-05-01 13:51 | 55.69541 | -4.09981 | 18806 ft | 371 kts | 124° |
| 2026-05-01 13:51 | 55.68237 | -4.05997 | 19268 ft | 374 kts | 124° |
| 2026-05-01 13:52 | 55.66940 | -4.02029 | 19735 ft | 378 kts | 124° |
| 2026-05-01 13:52 | 55.65591 | -3.97919 | 19850 ft | 391 kts | 124° |
| 2026-05-01 13:52 | 55.64164 | -3.93603 | 20002 ft | 403 kts | 124° |
| 2026-05-01 13:52 | 55.62740 | -3.89307 | 20139 ft | 416 kts | 124° |
| 2026-05-01 13:53 | 55.61700 | -3.86188 | 20199 ft | 424 kts | 124° |
| 2026-05-01 13:53 | 55.58625 | -3.77063 | 20697 ft | 441 kts | 124° |
| 2026-05-01 13:53 | 55.57047 | -3.72398 | 21137 ft | 442 kts | 124° |
| 2026-05-01 13:54 | 55.55447 | -3.67763 | 21507 ft | 443 kts | 127° |
| 2026-05-01 13:54 | 55.53506 | -3.63557 | 21872 ft | 442 kts | 134° |
| 2026-05-01 13:54 | 55.51413 | -3.59456 | 22282 ft | 445 kts | 135° |
| 2026-05-01 13:54 | 55.49309 | -3.55348 | 22703 ft | 447 kts | 135° |
| 2026-05-01 13:55 | 55.47757 | -3.52300 | 23018 ft | 449 kts | 135° |
| 2026-05-01 13:55 | 55.45539 | -3.47914 | 23459 ft | 452 kts | 134° |
| 2026-05-01 13:55 | 55.43454 | -3.43773 | 23854 ft | 456 kts | 134° |
| 2026-05-01 13:55 | 55.41322 | -3.39535 | 24267 ft | 458 kts | 134° |
| 2026-05-01 13:56 | 55.39203 | -3.35329 | 24697 ft | 460 kts | 134° |
| 2026-05-01 13:56 | 55.37042 | -3.31051 | 25141 ft | 463 kts | 134° |
| 2026-05-01 13:56 | 55.34867 | -3.26756 | 25590 ft | 466 kts | 134° |
| 2026-05-01 13:56 | 55.32676 | -3.22439 | 26060 ft | 469 kts | 135° |
| 2026-05-01 13:57 | 55.30463 | -3.18085 | 26538 ft | 472 kts | 135° |
| 2026-05-01 13:57 | 55.29011 | -3.15235 | 26850 ft | 475 kts | 135° |
| 2026-05-01 13:57 | 55.26053 | -3.09440 | 27498 ft | 479 kts | 135° |
| 2026-05-01 13:57 | 55.23774 | -3.04982 | 27961 ft | 482 kts | 135° |
| 2026-05-01 13:58 | 55.21565 | -3.00672 | 28418 ft | 485 kts | 135° |
| 2026-05-01 13:58 | 55.19277 | -2.96215 | 28865 ft | 489 kts | 135° |
| 2026-05-01 13:58 | 55.17000 | -2.91788 | 29334 ft | 492 kts | 135° |
| 2026-05-01 13:58 | 55.14658 | -2.87241 | 29779 ft | 495 kts | 135° |
| 2026-05-01 13:59 | 55.12340 | -2.82750 | 30197 ft | 498 kts | 135° |
| 2026-05-01 13:59 | 55.10002 | -2.78228 | 30563 ft | 502 kts | 134° |
| 2026-05-01 13:59 | 55.07593 | -2.73579 | 30955 ft | 505 kts | 134° |
| 2026-05-01 13:59 | 55.05277 | -2.69117 | 31326 ft | 508 kts | 134° |
| 2026-05-01 14:00 | 55.02898 | -2.64543 | 31827 ft | 508 kts | 134° |
| 2026-05-01 14:00 | 55.00495 | -2.59929 | 32387 ft | 508 kts | 134° |
| 2026-05-01 14:00 | 54.98126 | -2.55388 | 33187 ft | 502 kts | 134° |
| 2026-05-01 14:00 | 54.95804 | -2.50948 | 33621 ft | 504 kts | 134° |
| 2026-05-01 14:01 | 54.93413 | -2.46387 | 34095 ft | 506 kts | 134° |
| 2026-05-01 14:01 | 54.91043 | -2.41874 | 34603 ft | 504 kts | 134° |
| 2026-05-01 14:01 | 54.88708 | -2.37433 | 35429 ft | 496 kts | 135° |
| 2026-05-01 14:01 | 54.86379 | -2.33011 | 35889 ft | 496 kts | 135° |
| 2026-05-01 14:02 | 54.84038 | -2.28578 | 36199 ft | 500 kts | 135° |
| 2026-05-01 14:02 | 54.81689 | -2.24140 | 36605 ft | 500 kts | 135° |
| 2026-05-01 14:02 | 54.79334 | -2.19697 | 37234 ft | 496 kts | 135° |
| 2026-05-01 14:02 | 54.77772 | -2.16751 | 37844 ft | 490 kts | 135° |
| 2026-05-01 14:03 | 54.75458 | -2.12397 | 38249 ft | 491 kts | 135° |
| 2026-05-01 14:03 | 54.73137 | -2.08040 | 38728 ft | 490 kts | 135° |
| 2026-05-01 14:03 | 54.70816 | -2.03691 | 38967 ft | 493 kts | 135° |
| 2026-05-01 14:03 | 54.68458 | -1.99283 | 39145 ft | 497 kts | 135° |
| 2026-05-01 14:04 | 54.63716 | -1.90431 | 39122 ft | 490 kts | 135° |
| 2026-05-01 14:04 | 54.58985 | -1.81635 | 39120 ft | 494 kts | 135° |
| 2026-05-01 14:05 | 54.54301 | -1.72962 | 39120 ft | 494 kts | 135° |
| 2026-05-01 14:05 | 54.49626 | -1.64334 | 39133 ft | 494 kts | 135° |
| 2026-05-01 14:06 | 54.44987 | -1.55803 | 39128 ft | 494 kts | 135° |
| 2026-05-01 14:06 | 54.40259 | -1.47139 | 39128 ft | 494 kts | 136° |
| 2026-05-01 14:07 | 54.35563 | -1.38566 | 39102 ft | 494 kts | 136° |
| 2026-05-01 14:08 | 54.28486 | -1.25704 | 39129 ft | 494 kts | 136° |
| 2026-05-01 14:08 | 54.23772 | -1.17174 | 39124 ft | 493 kts | 136° |
| 2026-05-01 14:09 | 54.19011 | -1.08590 | 39129 ft | 493 kts | 136° |
| 2026-05-01 14:09 | 54.14232 | -1.00005 | 39130 ft | 492 kts | 136° |
| 2026-05-01 14:10 | 54.09485 | -0.91506 | 39126 ft | 492 kts | 136° |
| 2026-05-01 14:10 | 54.04731 | -0.83027 | 39126 ft | 492 kts | 136° |
| 2026-05-01 14:11 | 54.00140 | -0.74867 | 39129 ft | 491 kts | 136° |
| 2026-05-01 14:11 | 53.92997 | -0.62224 | 39132 ft | 491 kts | 136° |
| 2026-05-01 14:12 | 53.88918 | -0.55033 | 39136 ft | 490 kts | 136° |
| 2026-05-01 14:12 | 53.84175 | -0.46702 | 39141 ft | 490 kts | 136° |
| 2026-05-01 14:13 | 53.79351 | -0.38254 | 39144 ft | 489 kts | 137° |
| 2026-05-01 14:13 | 53.74520 | -0.29828 | 39150 ft | 490 kts | 137° |
| 2026-05-01 14:14 | 53.69609 | -0.21291 | 39154 ft | 490 kts | 137° |
| 2026-05-01 14:14 | 53.64816 | -0.12987 | 39155 ft | 490 kts | 137° |
| 2026-05-01 14:15 | 53.59982 | -0.04644 | 39154 ft | 490 kts | 137° |
| 2026-05-01 14:15 | 53.55096 | 0.03762 | 39152 ft | 491 kts | 137° |
| 2026-05-01 14:16 | 53.50320 | 0.11950 | 39150 ft | 491 kts | 137° |
| 2026-05-01 14:16 | 53.46258 | 0.18892 | 39151 ft | 490 kts | 137° |
| 2026-05-01 14:17 | 53.41361 | 0.27232 | 39148 ft | 491 kts | 137° |
| 2026-05-01 14:17 | 53.36530 | 0.35432 | 39149 ft | 491 kts | 137° |
| 2026-05-01 14:18 | 53.31729 | 0.43555 | 39148 ft | 490 kts | 137° |
| 2026-05-01 14:18 | 53.27721 | 0.50313 | 39144 ft | 491 kts | 137° |
| 2026-05-01 14:19 | 53.22093 | 0.59773 | 39150 ft | 491 kts | 137° |
| 2026-05-01 14:19 | 53.17282 | 0.67829 | 39151 ft | 491 kts | 137° |
| 2026-05-01 14:20 | 53.10040 | 0.79905 | 39151 ft | 490 kts | 137° |
| 2026-05-01 14:21 | 53.05215 | 0.87922 | 39154 ft | 490 kts | 137° |
| 2026-05-01 14:21 | 53.00519 | 0.96113 | 39154 ft | 492 kts | 131° |
| 2026-05-01 14:22 | 52.96795 | 1.05635 | 39159 ft | 497 kts | 119° |
| 2026-05-01 14:22 | 52.95371 | 1.10871 | 39168 ft | 499 kts | 114° |
| 2026-05-01 14:22 | 52.92970 | 1.21683 | 39171 ft | 499 kts | 112° |
| 2026-05-01 14:23 | 52.90706 | 1.31734 | 39176 ft | 499 kts | 113° |
| 2026-05-01 14:23 | 52.88137 | 1.42983 | 39179 ft | 499 kts | 113° |
| 2026-05-01 14:24 | 52.85701 | 1.53580 | 39182 ft | 499 kts | 113° |
| 2026-05-01 14:24 | 52.83183 | 1.64484 | 39186 ft | 498 kts | 113° |
| 2026-05-01 14:25 | 52.80696 | 1.75201 | 39192 ft | 498 kts | 113° |
| 2026-05-01 14:25 | 52.78195 | 1.85922 | 39192 ft | 499 kts | 114° |
| 2026-05-01 14:26 | 52.74483 | 2.01739 | 39212 ft | 499 kts | 114° |
| 2026-05-01 14:27 | 52.71923 | 2.12583 | 39208 ft | 498 kts | 114° |
| 2026-05-01 14:27 | 52.69393 | 2.23244 | 39210 ft | 498 kts | 114° |
| 2026-05-01 14:28 | 52.65558 | 2.39303 | 39202 ft | 498 kts | 114° |
| 2026-05-01 14:28 | 52.63034 | 2.49810 | 39194 ft | 497 kts | 114° |
| 2026-05-01 14:29 | 52.60476 | 2.60408 | 39210 ft | 497 kts | 114° |
| 2026-05-01 14:30 | 52.55367 | 2.81407 | 39212 ft | 496 kts | 115° |
| 2026-05-01 14:31 | 52.50565 | 2.96435 | 39216 ft | 495 kts | 121° |
| 2026-05-01 14:31 | 52.47231 | 3.06379 | 39215 ft | 494 kts | 121° |
| 2026-05-01 14:32 | 52.43903 | 3.16300 | 39215 ft | 494 kts | 121° |
| 2026-05-01 14:32 | 52.41132 | 3.24517 | 39216 ft | 494 kts | 121° |
| 2026-05-01 14:33 | 52.37776 | 3.34415 | 39218 ft | 495 kts | 121° |
| 2026-05-01 14:33 | 52.34440 | 3.44209 | 39219 ft | 495 kts | 121° |
| 2026-05-01 14:34 | 52.31045 | 3.54141 | 39221 ft | 495 kts | 121° |
| 2026-05-01 14:34 | 52.27622 | 3.64112 | 39218 ft | 495 kts | 121° |
| 2026-05-01 14:35 | 52.24231 | 3.73953 | 39220 ft | 495 kts | 121° |
| 2026-05-01 14:35 | 52.20828 | 3.83787 | 39220 ft | 496 kts | 121° |
| 2026-05-01 14:36 | 52.17526 | 3.93293 | 39222 ft | 496 kts | 121° |
| 2026-05-01 14:36 | 52.14032 | 4.03313 | 39220 ft | 496 kts | 121° |
| 2026-05-01 14:37 | 52.10480 | 4.13459 | 39218 ft | 497 kts | 121° |
| 2026-05-01 14:37 | 52.07224 | 4.22724 | 39215 ft | 497 kts | 121° |
| 2026-05-01 14:38 | 52.03717 | 4.32663 | 39211 ft | 498 kts | 121° |
| 2026-05-01 14:38 | 52.00174 | 4.42667 | 39211 ft | 497 kts | 121° |
| 2026-05-01 14:39 | 51.96615 | 4.52673 | 39210 ft | 498 kts | 121° |
| 2026-05-01 14:39 | 51.93238 | 4.62133 | 39211 ft | 499 kts | 121° |
| 2026-05-01 14:40 | 51.90256 | 4.70457 | 39215 ft | 499 kts | 121° |
| 2026-05-01 14:40 | 51.86624 | 4.80557 | 39220 ft | 499 kts | 122° |
| 2026-05-01 14:41 | 51.83148 | 4.90187 | 39225 ft | 500 kts | 122° |
| 2026-05-01 14:41 | 51.79476 | 5.00319 | 39227 ft | 500 kts | 122° |
| 2026-05-01 14:42 | 51.75928 | 5.10078 | 39228 ft | 501 kts | 122° |
| 2026-05-01 14:42 | 51.72403 | 5.19726 | 39227 ft | 501 kts | 122° |
| 2026-05-01 14:43 | 51.68723 | 5.29766 | 39221 ft | 503 kts | 122° |
| 2026-05-01 14:43 | 51.65009 | 5.39854 | 39238 ft | 502 kts | 122° |
| 2026-05-01 14:44 | 51.61504 | 5.49338 | 39239 ft | 503 kts | 122° |
| 2026-05-01 14:44 | 51.56601 | 5.62550 | 39235 ft | 505 kts | 122° |
| 2026-05-01 14:45 | 51.51068 | 5.77375 | 39238 ft | 505 kts | 122° |
| 2026-05-01 14:46 | 51.47375 | 5.87227 | 39243 ft | 506 kts | 122° |
| 2026-05-01 14:46 | 51.41789 | 6.02048 | 39260 ft | 506 kts | 122° |
| 2026-05-01 14:47 | 51.38011 | 6.12026 | 39253 ft | 508 kts | 122° |
| 2026-05-01 14:48 | 51.33074 | 6.25008 | 39257 ft | 506 kts | 122° |
| 2026-05-01 14:48 | 51.27418 | 6.39800 | 39265 ft | 506 kts | 122° |
| 2026-05-01 14:49 | 51.19873 | 6.59397 | 39267 ft | 504 kts | 122° |
| 2026-05-01 14:50 | 51.12320 | 6.78869 | 39262 ft | 505 kts | 122° |
| 2026-05-01 14:51 | 51.06694 | 6.93276 | 39267 ft | 506 kts | 122° |
| 2026-05-01 14:52 | 51.01666 | 7.06088 | 39267 ft | 506 kts | 122° |
| 2026-05-01 14:53 | 50.95803 | 7.20944 | 39264 ft | 505 kts | 122° |
| 2026-05-01 14:53 | 50.92097 | 7.30291 | 39266 ft | 506 kts | 122° |
| 2026-05-01 14:54 | 50.88257 | 7.39941 | 39272 ft | 507 kts | 122° |
| 2026-05-01 14:54 | 50.84673 | 7.48916 | 39276 ft | 506 kts | 122° |
| 2026-05-01 14:55 | 50.80870 | 7.58403 | 39284 ft | 506 kts | 122° |
| 2026-05-01 14:55 | 50.77063 | 7.67868 | 39306 ft | 507 kts | 122° |
| 2026-05-01 14:56 | 50.73268 | 7.77268 | 39310 ft | 505 kts | 122° |
| 2026-05-01 14:56 | 50.69505 | 7.86559 | 39316 ft | 507 kts | 123° |
| 2026-05-01 14:57 | 50.65695 | 7.95939 | 39321 ft | 506 kts | 123° |
| 2026-05-01 14:57 | 50.60447 | 8.08680 | 39319 ft | 508 kts | 125° |
| 2026-05-01 14:58 | 50.56054 | 8.17495 | 39318 ft | 508 kts | 129° |
| 2026-05-01 14:58 | 50.51408 | 8.26636 | 39317 ft | 509 kts | 129° |
| 2026-05-01 14:59 | 50.47099 | 8.35101 | 39311 ft | 509 kts | 129° |
| 2026-05-01 14:59 | 50.42642 | 8.43806 | 39308 ft | 509 kts | 129° |
| 2026-05-01 15:00 | 50.36547 | 8.55362 | 39308 ft | 508 kts | 133° |
| 2026-05-01 15:01 | 50.30911 | 8.64759 | 39306 ft | 514 kts | 133° |
| 2026-05-01 15:01 | 50.26798 | 8.71639 | 39301 ft | 513 kts | 133° |
| 2026-05-01 15:02 | 50.21153 | 8.81051 | 39301 ft | 513 kts | 133° |
| 2026-05-01 15:02 | 50.17094 | 8.87793 | 39304 ft | 517 kts | 133° |
| 2026-05-01 15:03 | 50.11960 | 8.96296 | 39305 ft | 512 kts | 133° |
| 2026-05-01 15:03 | 50.06907 | 9.04635 | 39308 ft | 518 kts | 133° |
| 2026-05-01 15:04 | 50.02177 | 9.12417 | 39310 ft | 512 kts | 133° |
| 2026-05-01 15:04 | 49.97239 | 9.20516 | 39320 ft | 507 kts | 133° |
| 2026-05-01 15:05 | 49.92395 | 9.28435 | 39296 ft | 511 kts | 133° |
| 2026-05-01 15:05 | 49.87466 | 9.36469 | 39323 ft | 511 kts | 133° |
| 2026-05-01 15:06 | 49.82368 | 9.44752 | 39320 ft | 515 kts | 133° |
| 2026-05-01 15:06 | 49.77510 | 9.52618 | 39322 ft | 513 kts | 133° |
| 2026-05-01 15:07 | 49.72529 | 9.60658 | 39324 ft | 512 kts | 133° |
| 2026-05-01 15:07 | 49.67583 | 9.68617 | 39324 ft | 512 kts | 133° |
| 2026-05-01 15:08 | 49.62532 | 9.76718 | 39324 ft | 513 kts | 133° |
| 2026-05-01 15:08 | 49.57696 | 9.84453 | 39325 ft | 512 kts | 133° |
| 2026-05-01 15:09 | 49.52682 | 9.92445 | 39324 ft | 512 kts | 133° |
| 2026-05-01 15:09 | 49.47738 | 10.00302 | 39319 ft | 510 kts | 133° |
| 2026-05-01 15:10 | 49.43318 | 10.07305 | 39322 ft | 512 kts | 133° |
| 2026-05-01 15:10 | 49.35910 | 10.19000 | 39324 ft | 512 kts | 133° |
| 2026-05-01 15:11 | 49.28134 | 10.31218 | 39341 ft | 511 kts | 133° |
| 2026-05-01 15:12 | 49.22993 | 10.38450 | 39358 ft | 512 kts | 141° |
| 2026-05-01 15:12 | 49.13537 | 10.47480 | 39368 ft | 512 kts | 148° |
| 2026-05-01 15:14 | 48.99032 | 10.60638 | 39365 ft | 514 kts | 148° |
| 2026-05-01 15:14 | 48.89429 | 10.69301 | 39360 ft | 513 kts | 148° |
| 2026-05-01 15:15 | 48.77794 | 10.82274 | 39341 ft | 510 kts | 132° |
| 2026-05-01 15:16 | 48.68082 | 10.98634 | 39323 ft | 510 kts | 130° |
| 2026-05-01 15:18 | 48.56522 | 11.17872 | 39323 ft | 510 kts | 130° |
| 2026-05-01 15:19 | 48.46947 | 11.33702 | 39323 ft | 511 kts | 130° |
| 2026-05-01 15:19 | 48.40246 | 11.44724 | 39325 ft | 510 kts | 130° |
| 2026-05-01 15:20 | 48.32960 | 11.56655 | 39321 ft | 510 kts | 130° |
| 2026-05-01 15:21 | 48.28068 | 11.64636 | 39323 ft | 511 kts | 130° |
| 2026-05-01 15:21 | 48.22882 | 11.72246 | 39311 ft | 512 kts | 135° |
| 2026-05-01 15:22 | 48.14844 | 11.83269 | 39311 ft | 512 kts | 135° |
| 2026-05-01 15:22 | 48.09404 | 11.90721 | 39313 ft | 512 kts | 135° |
| 2026-05-01 15:23 | 48.03955 | 11.98160 | 39317 ft | 513 kts | 135° |
| 2026-05-01 15:23 | 47.99394 | 12.04368 | 39329 ft | 513 kts | 135° |
| 2026-05-01 15:24 | 47.94130 | 12.11514 | 39319 ft | 513 kts | 135° |
| 2026-05-01 15:24 | 47.88772 | 12.18768 | 39316 ft | 513 kts | 135° |
| 2026-05-01 15:25 | 47.83045 | 12.26496 | 39317 ft | 513 kts | 135° |
| 2026-05-01 15:25 | 47.77750 | 12.33621 | 39313 ft | 514 kts | 135° |
| 2026-05-01 15:26 | 47.72430 | 12.40759 | 39315 ft | 514 kts | 135° |
| 2026-05-01 15:26 | 47.67121 | 12.47861 | 39310 ft | 514 kts | 135° |
| 2026-05-01 15:27 | 47.62650 | 12.53826 | 39310 ft | 514 kts | 135° |
| 2026-05-01 15:28 | 47.54563 | 12.64735 | 39310 ft | 514 kts | 135° |
| 2026-05-01 15:28 | 47.49302 | 12.71836 | 39305 ft | 514 kts | 135° |
| 2026-05-01 15:29 | 47.41113 | 12.82824 | 39305 ft | 514 kts | 135° |
| 2026-05-01 15:30 | 47.31864 | 12.95174 | 39306 ft | 514 kts | 135° |
| 2026-05-01 15:31 | 47.14922 | 13.17639 | 39303 ft | 514 kts | 135° |
| 2026-05-01 15:32 | 47.04149 | 13.31817 | 39305 ft | 514 kts | 134° |
| 2026-05-01 15:34 | 46.88008 | 13.52922 | 39308 ft | 514 kts | 135° |